INFORMAÇÕES METEOROLÓGICAS
METAR FOR SBCJ
ADDS - METARS form results

(1011 UTC 21 April 2019)
Data provider http://aviationweather.gov/metar/data/
 
Forecast for: SBCJ (CARAJAS/MARABA , BR)
Text: TAF SBCJ 211000Z 2112/2124 08005KT 9999 SCT010 TN24/2112Z TX28/2118Z
Forecast period: 1200 UTC 21 April 2019 to 0000 UTC 22 April 2019
Forecast type: FROM: standard forecast or significant change
Winds: from the E (80 degrees) at 6 MPH (5 knots; 2.6 m/s)
Visibility: 6 or more miles 10+ km)
Ceiling: at least 12,000 feet AGL
Clouds: scattered clouds at 1000 feet AGL
Weather: no significant weather forecast for this period
Text: PROB30 2112/2114 BKN010 RMK PEU
Forecast period: 1200 to 1400 UTC 21 April 2019
Forecast type: PROBABLE: 30 percent likelihood of the following during this time
Visibility: missing
Ceiling: 1000 feet AGL
Clouds: broken clouds at 1000 feet AGL
Weather: no significant weather forecast for this period

 MAPA DO AEROPORTO

 INFORMAÇÕES DA PISTA
Pista 10 Tamanho da pista 6562 ft Largura da pista 148 ft
Elevação da pista 0 ft Ranhura da pista 0 ft Proa da pista 0
Pista 28 Tamanho da pista 6562 ft Largura da pista 148 ft
Elevação da pista 0 ft Ranhura da pista 0 ft Proa da pista 0

 FREQUÊNCIAS DO AEROPORTO
Tipo AFIS Nome RDO Frequência 131.7 MHZ

 AUXÍLIOS DE NAVEGAÇÃO PRÓXIMOS AO AEROPORTO
Tipo VOR-DME Nome Carajas Frequência 112400 KHZ
Tipo NDB Nome Carajas Frequência 170 KHZ



Powered by Mercosul Lnhas Aereas